sensor_id;sensor_type;location;lat;lon;timestamp;P1;durP1;ratioP1;P2;durP2;ratioP2
74108;SDS011;62466;47.566;7.786;2023-04-30T00:00:22;12.45;;;6.35;;
74108;SDS011;62466;47.566;7.786;2023-04-30T00:02:48;13.88;;;7.72;;
74108;SDS011;62466;47.566;7.786;2023-04-30T00:05:13;11.52;;;7.53;;
74108;SDS011;62466;47.566;7.786;2023-04-30T00:07:40;10.75;;;7.72;;
74108;SDS011;62466;47.566;7.786;2023-04-30T00:10:08;12.38;;;7.43;;
74108;SDS011;62466;47.566;7.786;2023-04-30T00:12:34;13.70;;;8.05;;
74108;SDS011;62466;47.566;7.786;2023-04-30T00:14:59;13.48;;;8.15;;
74108;SDS011;62466;47.566;7.786;2023-04-30T00:17:25;13.57;;;9.15;;
74108;SDS011;62466;47.566;7.786;2023-04-30T00:19:51;12.70;;;8.27;;
74108;SDS011;62466;47.566;7.786;2023-04-30T00:22:16;12.57;;;7.88;;
74108;SDS011;62466;47.566;7.786;2023-04-30T00:24:42;10.02;;;7.53;;
74108;SDS011;62466;47.566;7.786;2023-04-30T00:27:07;11.25;;;7.32;;
74108;SDS011;62466;47.566;7.786;2023-04-30T00:29:33;9.18;;;6.93;;
74108;SDS011;62466;47.566;7.786;2023-04-30T00:31:58;11.50;;;7.28;;
74108;SDS011;62466;47.566;7.786;2023-04-30T00:34:24;12.38;;;7.43;;
74108;SDS011;62466;47.566;7.786;2023-04-30T00:36:49;12.68;;;7.88;;
74108;SDS011;62466;47.566;7.786;2023-04-30T00:39:15;11.60;;;8.02;;
74108;SDS011;62466;47.566;7.786;2023-04-30T00:41:41;12.13;;;7.28;;
74108;SDS011;62466;47.566;7.786;2023-04-30T00:44:07;11.10;;;8.23;;
74108;SDS011;62466;47.566;7.786;2023-04-30T00:46:32;9.18;;;6.88;;
74108;SDS011;62466;47.566;7.786;2023-04-30T00:48:58;13.88;;;7.47;;
74108;SDS011;62466;47.566;7.786;2023-04-30T00:51:28;12.52;;;7.22;;
74108;SDS011;62466;47.566;7.786;2023-04-30T00:53:56;11.60;;;7.75;;
74108;SDS011;62466;47.566;7.786;2023-04-30T00:56:22;13.55;;;8.48;;
74108;SDS011;62466;47.566;7.786;2023-04-30T00:58:48;13.38;;;7.38;;
74108;SDS011;62466;47.566;7.786;2023-04-30T01:01:15;11.98;;;7.65;;
74108;SDS011;62466;47.566;7.786;2023-04-30T01:03:42;10.00;;;7.25;;
74108;SDS011;62466;47.566;7.786;2023-04-30T01:06:07;12.43;;;7.63;;
74108;SDS011;62466;47.566;7.786;2023-04-30T01:08:33;11.32;;;7.65;;
74108;SDS011;62466;47.566;7.786;2023-04-30T01:14:08;12.98;;;8.32;;
74108;SDS011;62466;47.566;7.786;2023-04-30T01:16:39;12.23;;;7.65;;
74108;SDS011;62466;47.566;7.786;2023-04-30T01:19:08;15.55;;;8.63;;
74108;SDS011;62466;47.566;7.786;2023-04-30T01:21:44;17.17;;;9.48;;
74108;SDS011;62466;47.566;7.786;2023-04-30T01:24:17;12.40;;;8.07;;
74108;SDS011;62466;47.566;7.786;2023-04-30T01:29:28;11.18;;;7.57;;
74108;SDS011;62466;47.566;7.786;2023-04-30T01:31:54;13.02;;;8.15;;
74108;SDS011;62466;47.566;7.786;2023-04-30T01:34:20;14.40;;;7.70;;
74108;SDS011;62466;47.566;7.786;2023-04-30T01:36:52;11.93;;;7.10;;
74108;SDS011;62466;47.566;7.786;2023-04-30T01:50:50;10.32;;;6.30;;
74108;SDS011;62466;47.566;7.786;2023-04-30T01:53:20;10.65;;;6.70;;
74108;SDS011;62466;47.566;7.786;2023-04-30T01:55:56;10.70;;;6.68;;
74108;SDS011;62466;47.566;7.786;2023-04-30T01:58:24;11.48;;;7.45;;
74108;SDS011;62466;47.566;7.786;2023-04-30T02:00:50;9.27;;;7.00;;
74108;SDS011;62466;47.566;7.786;2023-04-30T02:03:16;13.27;;;7.55;;
74108;SDS011;62466;47.566;7.786;2023-04-30T02:05:42;9.35;;;7.03;;
74108;SDS011;62466;47.566;7.786;2023-04-30T02:08:07;9.98;;;6.82;;
74108;SDS011;62466;47.566;7.786;2023-04-30T02:10:33;9.68;;;6.53;;
74108;SDS011;62466;47.566;7.786;2023-04-30T02:12:58;9.70;;;6.50;;
74108;SDS011;62466;47.566;7.786;2023-04-30T02:15:25;10.73;;;6.65;;
74108;SDS011;62466;47.566;7.786;2023-04-30T02:17:51;9.02;;;6.75;;
74108;SDS011;62466;47.566;7.786;2023-04-30T02:20:17;10.27;;;6.95;;
74108;SDS011;62466;47.566;7.786;2023-04-30T02:22:43;10.13;;;6.57;;
74108;SDS011;62466;47.566;7.786;2023-04-30T02:25:09;11.20;;;5.95;;
74108;SDS011;62466;47.566;7.786;2023-04-30T02:27:36;9.43;;;6.22;;
74108;SDS011;62466;47.566;7.786;2023-04-30T02:30:02;7.97;;;6.40;;
74108;SDS011;62466;47.566;7.786;2023-04-30T02:32:28;11.32;;;6.82;;
74108;SDS011;62466;47.566;7.786;2023-04-30T02:34:54;10.63;;;6.65;;
74108;SDS011;62466;47.566;7.786;2023-04-30T02:37:19;8.60;;;6.25;;
74108;SDS011;62466;47.566;7.786;2023-04-30T02:39:45;10.02;;;7.10;;
74108;SDS011;62466;47.566;7.786;2023-04-30T02:42:11;8.15;;;5.90;;
74108;SDS011;62466;47.566;7.786;2023-04-30T02:44:37;10.00;;;6.20;;
74108;SDS011;62466;47.566;7.786;2023-04-30T02:47:02;16.35;;;7.07;;
74108;SDS011;62466;47.566;7.786;2023-04-30T02:49:28;13.75;;;7.22;;
74108;SDS011;62466;47.566;7.786;2023-04-30T02:51:54;11.07;;;7.22;;
74108;SDS011;62466;47.566;7.786;2023-04-30T02:54:20;8.73;;;6.20;;
74108;SDS011;62466;47.566;7.786;2023-04-30T02:56:45;10.88;;;6.05;;
74108;SDS011;62466;47.566;7.786;2023-04-30T02:59:11;9.90;;;7.07;;
74108;SDS011;62466;47.566;7.786;2023-04-30T03:01:37;11.00;;;7.28;;
74108;SDS011;62466;47.566;7.786;2023-04-30T03:04:03;11.85;;;7.30;;
74108;SDS011;62466;47.566;7.786;2023-04-30T03:06:32;11.10;;;6.78;;
74108;SDS011;62466;47.566;7.786;2023-04-30T03:08:58;9.38;;;6.78;;
74108;SDS011;62466;47.566;7.786;2023-04-30T03:11:23;14.00;;;8.27;;
74108;SDS011;62466;47.566;7.786;2023-04-30T03:13:49;14.05;;;7.93;;
74108;SDS011;62466;47.566;7.786;2023-04-30T03:16:18;11.88;;;8.00;;
74108;SDS011;62466;47.566;7.786;2023-04-30T03:18:45;10.52;;;7.68;;
74108;SDS011;62466;47.566;7.786;2023-04-30T03:21:11;12.43;;;7.20;;
74108;SDS011;62466;47.566;7.786;2023-04-30T03:23:36;10.73;;;7.60;;
74108;SDS011;62466;47.566;7.786;2023-04-30T03:26:02;13.07;;;7.28;;
74108;SDS011;62466;47.566;7.786;2023-04-30T03:28:28;11.13;;;7.70;;
74108;SDS011;62466;47.566;7.786;2023-04-30T03:30:53;11.80;;;7.70;;
74108;SDS011;62466;47.566;7.786;2023-04-30T03:33:19;12.93;;;7.38;;
74108;SDS011;62466;47.566;7.786;2023-04-30T03:35:45;10.82;;;6.40;;
74108;SDS011;62466;47.566;7.786;2023-04-30T03:38:10;11.77;;;7.50;;
74108;SDS011;62466;47.566;7.786;2023-04-30T03:40:36;10.80;;;7.15;;
74108;SDS011;62466;47.566;7.786;2023-04-30T03:43:01;11.30;;;7.85;;
74108;SDS011;62466;47.566;7.786;2023-04-30T03:45:27;11.52;;;7.50;;
74108;SDS011;62466;47.566;7.786;2023-04-30T03:47:52;10.32;;;6.90;;
74108;SDS011;62466;47.566;7.786;2023-04-30T03:50:18;11.73;;;6.72;;
74108;SDS011;62466;47.566;7.786;2023-04-30T03:52:44;11.70;;;6.82;;
74108;SDS011;62466;47.566;7.786;2023-04-30T03:55:11;11.02;;;6.78;;
74108;SDS011;62466;47.566;7.786;2023-04-30T03:57:38;9.85;;;7.18;;
74108;SDS011;62466;47.566;7.786;2023-04-30T04:00:05;11.95;;;7.35;;
74108;SDS011;62466;47.566;7.786;2023-04-30T04:02:45;11.32;;;7.00;;
74108;SDS011;62466;47.566;7.786;2023-04-30T04:05:10;14.50;;;8.02;;
74108;SDS011;62466;47.566;7.786;2023-04-30T04:07:36;11.10;;;7.13;;
74108;SDS011;62466;47.566;7.786;2023-04-30T04:10:02;11.60;;;7.47;;
74108;SDS011;62466;47.566;7.786;2023-04-30T04:12:29;14.65;;;7.35;;
74108;SDS011;62466;47.566;7.786;2023-04-30T04:14:55;11.57;;;8.15;;
74108;SDS011;62466;47.566;7.786;2023-04-30T04:17:21;11.85;;;7.30;;
74108;SDS011;62466;47.566;7.786;2023-04-30T04:19:46;10.25;;;7.20;;
74108;SDS011;62466;47.566;7.786;2023-04-30T04:22:14;12.70;;;7.20;;
74108;SDS011;62466;47.566;7.786;2023-04-30T04:24:40;11.38;;;7.53;;
74108;SDS011;62466;47.566;7.786;2023-04-30T04:27:06;11.75;;;7.82;;
74108;SDS011;62466;47.566;7.786;2023-04-30T04:29:32;11.38;;;7.22;;
74108;SDS011;62466;47.566;7.786;2023-04-30T04:31:57;12.38;;;7.60;;
74108;SDS011;62466;47.566;7.786;2023-04-30T04:34:25;12.57;;;7.82;;
74108;SDS011;62466;47.566;7.786;2023-04-30T04:36:51;11.25;;;7.65;;
74108;SDS011;62466;47.566;7.786;2023-04-30T04:39:17;12.73;;;7.00;;
74108;SDS011;62466;47.566;7.786;2023-04-30T04:41:43;10.35;;;7.35;;
74108;SDS011;62466;47.566;7.786;2023-04-30T04:44:09;14.50;;;8.02;;
74108;SDS011;62466;47.566;7.786;2023-04-30T04:46:36;13.45;;;7.32;;
74108;SDS011;62466;47.566;7.786;2023-04-30T04:49:06;11.63;;;7.78;;
74108;SDS011;62466;47.566;7.786;2023-04-30T04:51:32;15.52;;;7.90;;
74108;SDS011;62466;47.566;7.786;2023-04-30T04:53:57;14.48;;;8.18;;
74108;SDS011;62466;47.566;7.786;2023-04-30T04:56:23;11.77;;;7.70;;
74108;SDS011;62466;47.566;7.786;2023-04-30T04:58:48;16.92;;;8.27;;
74108;SDS011;62466;47.566;7.786;2023-04-30T05:01:14;14.80;;;7.80;;
74108;SDS011;62466;47.566;7.786;2023-04-30T05:03:40;14.13;;;9.13;;
74108;SDS011;62466;47.566;7.786;2023-04-30T05:06:06;13.25;;;8.60;;
74108;SDS011;62466;47.566;7.786;2023-04-30T05:08:31;13.93;;;8.38;;
74108;SDS011;62466;47.566;7.786;2023-04-30T05:10:57;12.80;;;7.93;;
74108;SDS011;62466;47.566;7.786;2023-04-30T05:13:26;14.70;;;8.98;;
74108;SDS011;62466;47.566;7.786;2023-04-30T05:15:53;11.00;;;6.93;;
74108;SDS011;62466;47.566;7.786;2023-04-30T05:18:19;13.00;;;8.32;;
74108;SDS011;62466;47.566;7.786;2023-04-30T05:20:45;13.38;;;8.23;;
74108;SDS011;62466;47.566;7.786;2023-04-30T05:23:10;13.55;;;7.88;;
74108;SDS011;62466;47.566;7.786;2023-04-30T05:25:36;13.18;;;7.88;;
74108;SDS011;62466;47.566;7.786;2023-04-30T05:28:02;13.15;;;7.75;;
74108;SDS011;62466;47.566;7.786;2023-04-30T05:30:28;12.68;;;8.07;;
74108;SDS011;62466;47.566;7.786;2023-04-30T05:32:54;12.93;;;7.82;;
74108;SDS011;62466;47.566;7.786;2023-04-30T05:35:21;13.27;;;7.28;;
74108;SDS011;62466;47.566;7.786;2023-04-30T05:37:46;11.82;;;7.65;;
74108;SDS011;62466;47.566;7.786;2023-04-30T05:40:12;14.35;;;7.93;;
74108;SDS011;62466;47.566;7.786;2023-04-30T05:42:38;13.77;;;8.13;;
74108;SDS011;62466;47.566;7.786;2023-04-30T05:45:05;11.43;;;7.43;;
74108;SDS011;62466;47.566;7.786;2023-04-30T05:47:31;13.95;;;8.00;;
74108;SDS011;62466;47.566;7.786;2023-04-30T05:49:57;13.57;;;7.35;;
74108;SDS011;62466;47.566;7.786;2023-04-30T05:52:22;10.63;;;6.60;;
74108;SDS011;62466;47.566;7.786;2023-04-30T05:54:48;14.32;;;7.85;;
74108;SDS011;62466;47.566;7.786;2023-04-30T05:57:13;15.23;;;9.13;;
74108;SDS011;62466;47.566;7.786;2023-04-30T05:59:39;12.48;;;7.85;;
74108;SDS011;62466;47.566;7.786;2023-04-30T06:02:05;13.27;;;7.93;;
74108;SDS011;62466;47.566;7.786;2023-04-30T06:04:30;13.35;;;7.53;;
74108;SDS011;62466;47.566;7.786;2023-04-30T06:06:56;10.75;;;6.60;;
74108;SDS011;62466;47.566;7.786;2023-04-30T06:09:22;12.98;;;7.20;;
74108;SDS011;62466;47.566;7.786;2023-04-30T06:11:47;11.80;;;7.53;;
74108;SDS011;62466;47.566;7.786;2023-04-30T06:14:16;12.15;;;8.00;;
74108;SDS011;62466;47.566;7.786;2023-04-30T06:16:45;10.75;;;6.95;;
74108;SDS011;62466;47.566;7.786;2023-04-30T06:19:11;14.50;;;8.00;;
74108;SDS011;62466;47.566;7.786;2023-04-30T06:21:37;12.00;;;7.30;;
74108;SDS011;62466;47.566;7.786;2023-04-30T06:24:02;13.25;;;7.68;;
74108;SDS011;62466;47.566;7.786;2023-04-30T06:26:28;12.40;;;6.53;;
74108;SDS011;62466;47.566;7.786;2023-04-30T06:28:54;12.57;;;6.53;;
74108;SDS011;62466;47.566;7.786;2023-04-30T06:31:20;10.18;;;6.57;;
74108;SDS011;62466;47.566;7.786;2023-04-30T06:33:48;10.80;;;6.25;;
74108;SDS011;62466;47.566;7.786;2023-04-30T06:36:14;7.50;;;4.90;;
74108;SDS011;62466;47.566;7.786;2023-04-30T06:38:48;8.85;;;5.30;;
74108;SDS011;62466;47.566;7.786;2023-04-30T06:41:16;9.93;;;5.35;;
74108;SDS011;62466;47.566;7.786;2023-04-30T06:43:45;6.97;;;4.88;;
74108;SDS011;62466;47.566;7.786;2023-04-30T06:46:16;9.20;;;5.30;;
74108;SDS011;62466;47.566;7.786;2023-04-30T06:48:42;7.10;;;5.00;;
74108;SDS011;62466;47.566;7.786;2023-04-30T06:51:10;6.10;;;4.10;;
74108;SDS011;62466;47.566;7.786;2023-04-30T06:53:35;5.95;;;4.15;;
74108;SDS011;62466;47.566;7.786;2023-04-30T06:56:01;6.40;;;4.43;;
74108;SDS011;62466;47.566;7.786;2023-04-30T06:58:28;7.85;;;4.60;;
74108;SDS011;62466;47.566;7.786;2023-04-30T07:00:53;6.28;;;4.20;;
74108;SDS011;62466;47.566;7.786;2023-04-30T07:03:19;4.57;;;3.58;;
74108;SDS011;62466;47.566;7.786;2023-04-30T07:05:44;5.45;;;3.95;;
74108;SDS011;62466;47.566;7.786;2023-04-30T07:08:10;5.63;;;3.95;;
74108;SDS011;62466;47.566;7.786;2023-04-30T07:10:35;5.90;;;4.00;;
74108;SDS011;62466;47.566;7.786;2023-04-30T07:13:01;7.38;;;5.43;;
74108;SDS011;62466;47.566;7.786;2023-04-30T07:15:27;7.80;;;4.72;;
74108;SDS011;62466;47.566;7.786;2023-04-30T07:17:53;8.65;;;5.15;;
74108;SDS011;62466;47.566;7.786;2023-04-30T07:20:19;6.82;;;4.47;;
74108;SDS011;62466;47.566;7.786;2023-04-30T07:22:48;4.80;;;3.78;;
74108;SDS011;62466;47.566;7.786;2023-04-30T07:25:24;5.13;;;3.65;;
74108;SDS011;62466;47.566;7.786;2023-04-30T07:28:14;6.43;;;3.28;;
74108;SDS011;62466;47.566;7.786;2023-04-30T07:30:42;3.77;;;2.80;;
74108;SDS011;62466;47.566;7.786;2023-04-30T07:33:08;4.53;;;2.53;;
74108;SDS011;62466;47.566;7.786;2023-04-30T07:35:37;4.05;;;2.78;;
74108;SDS011;62466;47.566;7.786;2023-04-30T07:38:17;2.78;;;2.22;;
74108;SDS011;62466;47.566;7.786;2023-04-30T07:40:48;3.45;;;2.40;;
74108;SDS011;62466;47.566;7.786;2023-04-30T07:43:14;2.67;;;2.42;;
74108;SDS011;62466;47.566;7.786;2023-04-30T07:45:42;2.63;;;2.17;;
74108;SDS011;62466;47.566;7.786;2023-04-30T07:48:12;2.75;;;2.00;;
74108;SDS011;62466;47.566;7.786;2023-04-30T07:50:46;2.80;;;2.28;;
74108;SDS011;62466;47.566;7.786;2023-04-30T07:53:15;3.17;;;2.38;;
74108;SDS011;62466;47.566;7.786;2023-04-30T07:55:41;3.10;;;2.25;;
74108;SDS011;62466;47.566;7.786;2023-04-30T07:58:07;3.17;;;2.35;;
74108;SDS011;62466;47.566;7.786;2023-04-30T08:00:33;2.38;;;1.70;;
74108;SDS011;62466;47.566;7.786;2023-04-30T08:02:59;3.38;;;2.42;;
74108;SDS011;62466;47.566;7.786;2023-04-30T08:05:25;2.90;;;2.17;;
74108;SDS011;62466;47.566;7.786;2023-04-30T08:07:51;2.33;;;2.10;;
74108;SDS011;62466;47.566;7.786;2023-04-30T08:10:17;3.20;;;2.30;;
74108;SDS011;62466;47.566;7.786;2023-04-30T08:12:43;2.53;;;1.98;;
74108;SDS011;62466;47.566;7.786;2023-04-30T08:15:09;2.10;;;1.95;;
74108;SDS011;62466;47.566;7.786;2023-04-30T08:17:35;2.85;;;2.50;;
74108;SDS011;62466;47.566;7.786;2023-04-30T08:20:02;3.33;;;2.20;;
74108;SDS011;62466;47.566;7.786;2023-04-30T08:22:28;2.80;;;2.38;;
74108;SDS011;62466;47.566;7.786;2023-04-30T08:24:54;2.90;;;2.63;;
74108;SDS011;62466;47.566;7.786;2023-04-30T08:27:20;3.65;;;2.50;;
74108;SDS011;62466;47.566;7.786;2023-04-30T08:29:47;2.88;;;2.35;;
74108;SDS011;62466;47.566;7.786;2023-04-30T08:32:13;3.03;;;2.05;;
74108;SDS011;62466;47.566;7.786;2023-04-30T08:34:38;3.60;;;2.20;;
74108;SDS011;62466;47.566;7.786;2023-04-30T08:37:07;3.63;;;2.38;;
74108;SDS011;62466;47.566;7.786;2023-04-30T08:39:33;3.00;;;2.42;;
74108;SDS011;62466;47.566;7.786;2023-04-30T08:42:00;3.05;;;2.58;;
74108;SDS011;62466;47.566;7.786;2023-04-30T08:44:28;4.30;;;2.22;;
74108;SDS011;62466;47.566;7.786;2023-04-30T08:46:55;6.25;;;2.50;;
74108;SDS011;62466;47.566;7.786;2023-04-30T08:49:24;3.42;;;2.88;;
74108;SDS011;62466;47.566;7.786;2023-04-30T08:51:50;2.10;;;2.00;;
74108;SDS011;62466;47.566;7.786;2023-04-30T08:54:16;4.15;;;2.40;;
74108;SDS011;62466;47.566;7.786;2023-04-30T08:56:46;2.70;;;2.20;;
74108;SDS011;62466;47.566;7.786;2023-04-30T08:59:12;2.60;;;2.40;;
74108;SDS011;62466;47.566;7.786;2023-04-30T09:01:38;2.85;;;2.55;;
74108;SDS011;62466;47.566;7.786;2023-04-30T09:04:04;3.38;;;2.38;;
74108;SDS011;62466;47.566;7.786;2023-04-30T09:06:32;2.50;;;2.30;;
74108;SDS011;62466;47.566;7.786;2023-04-30T09:09:07;2.47;;;2.22;;
74108;SDS011;62466;47.566;7.786;2023-04-30T09:11:52;3.00;;;2.55;;
74108;SDS011;62466;47.566;7.786;2023-04-30T09:14:39;3.35;;;2.83;;
74108;SDS011;62466;47.566;7.786;2023-04-30T09:17:06;3.45;;;2.67;;
74108;SDS011;62466;47.566;7.786;2023-04-30T09:19:37;4.85;;;2.80;;
74108;SDS011;62466;47.566;7.786;2023-04-30T09:22:40;3.03;;;2.78;;
74108;SDS011;62466;47.566;7.786;2023-04-30T09:25:03;3.22;;;2.92;;
74108;SDS011;62466;47.566;7.786;2023-04-30T09:27:32;4.40;;;2.47;;
74108;SDS011;62466;47.566;7.786;2023-04-30T09:30:00;3.08;;;2.78;;
74108;SDS011;62466;47.566;7.786;2023-04-30T09:32:29;3.92;;;3.00;;
74108;SDS011;62466;47.566;7.786;2023-04-30T09:34:55;3.03;;;2.70;;
74108;SDS011;62466;47.566;7.786;2023-04-30T09:37:22;5.15;;;2.95;;
74108;SDS011;62466;47.566;7.786;2023-04-30T09:40:02;3.03;;;2.35;;
74108;SDS011;62466;47.566;7.786;2023-04-30T09:42:28;3.17;;;2.88;;
74108;SDS011;62466;47.566;7.786;2023-04-30T09:44:55;3.72;;;3.20;;
74108;SDS011;62466;47.566;7.786;2023-04-30T09:47:21;3.05;;;2.72;;
74108;SDS011;62466;47.566;7.786;2023-04-30T09:49:47;3.38;;;2.70;;
74108;SDS011;62466;47.566;7.786;2023-04-30T09:52:16;4.53;;;3.05;;
74108;SDS011;62466;47.566;7.786;2023-04-30T09:54:48;3.28;;;2.78;;
74108;SDS011;62466;47.566;7.786;2023-04-30T09:57:14;5.20;;;2.72;;
74108;SDS011;62466;47.566;7.786;2023-04-30T09:59:46;4.32;;;2.47;;
74108;SDS011;62466;47.566;7.786;2023-04-30T10:02:14;5.65;;;3.33;;
74108;SDS011;62466;47.566;7.786;2023-04-30T10:04:42;3.78;;;2.20;;
74108;SDS011;62466;47.566;7.786;2023-04-30T10:07:55;4.07;;;2.50;;
74108;SDS011;62466;47.566;7.786;2023-04-30T10:15:34;2.80;;;2.20;;
74108;SDS011;62466;47.566;7.786;2023-04-30T10:18:26;5.68;;;2.50;;
74108;SDS011;62466;47.566;7.786;2023-04-30T10:20:58;3.85;;;2.42;;
74108;SDS011;62466;47.566;7.786;2023-04-30T10:23:49;2.55;;;1.98;;
74108;SDS011;62466;47.566;7.786;2023-04-30T10:26:18;3.25;;;2.05;;
74108;SDS011;62466;47.566;7.786;2023-04-30T10:28:45;2.58;;;2.38;;
74108;SDS011;62466;47.566;7.786;2023-04-30T10:31:20;2.63;;;2.20;;
74108;SDS011;62466;47.566;7.786;2023-04-30T10:36:44;2.88;;;2.35;;
74108;SDS011;62466;47.566;7.786;2023-04-30T10:39:37;2.30;;;2.08;;
74108;SDS011;62466;47.566;7.786;2023-04-30T10:42:04;2.30;;;1.90;;
74108;SDS011;62466;47.566;7.786;2023-04-30T10:44:34;2.90;;;1.75;;
74108;SDS011;62466;47.566;7.786;2023-04-30T10:47:06;2.42;;;2.22;;
74108;SDS011;62466;47.566;7.786;2023-04-30T10:49:38;2.22;;;1.90;;
74108;SDS011;62466;47.566;7.786;2023-04-30T10:52:09;2.58;;;1.75;;
74108;SDS011;62466;47.566;7.786;2023-04-30T10:54:35;2.00;;;1.80;;
74108;SDS011;62466;47.566;7.786;2023-04-30T10:57:13;2.92;;;1.73;;
74108;SDS011;62466;47.566;7.786;2023-04-30T10:59:42;1.88;;;1.70;;
74108;SDS011;62466;47.566;7.786;2023-04-30T11:02:17;1.58;;;1.48;;
74108;SDS011;62466;47.566;7.786;2023-04-30T11:07:33;2.35;;;1.90;;
74108;SDS011;62466;47.566;7.786;2023-04-30T11:10:01;3.63;;;1.60;;
74108;SDS011;62466;47.566;7.786;2023-04-30T11:12:28;4.90;;;2.50;;
74108;SDS011;62466;47.566;7.786;2023-04-30T11:15:00;2.42;;;1.88;;
74108;SDS011;62466;47.566;7.786;2023-04-30T11:17:30;1.55;;;1.45;;
74108;SDS011;62466;47.566;7.786;2023-04-30T11:19:57;2.25;;;1.70;;
74108;SDS011;62466;47.566;7.786;2023-04-30T11:22:25;2.72;;;1.90;;
74108;SDS011;62466;47.566;7.786;2023-04-30T11:27:27;2.15;;;1.90;;
74108;SDS011;62466;47.566;7.786;2023-04-30T11:29:54;1.90;;;1.67;;
74108;SDS011;62466;47.566;7.786;2023-04-30T11:32:22;2.55;;;1.60;;
74108;SDS011;62466;47.566;7.786;2023-04-30T11:34:54;2.00;;;1.65;;
74108;SDS011;62466;47.566;7.786;2023-04-30T11:37:20;3.08;;;1.67;;
74108;SDS011;62466;47.566;7.786;2023-04-30T11:39:50;1.60;;;1.40;;
74108;SDS011;62466;47.566;7.786;2023-04-30T11:42:19;4.95;;;1.85;;
74108;SDS011;62466;47.566;7.786;2023-04-30T11:44:45;1.88;;;1.70;;
74108;SDS011;62466;47.566;7.786;2023-04-30T11:47:14;2.10;;;1.52;;
74108;SDS011;62466;47.566;7.786;2023-04-30T11:49:40;2.28;;;1.65;;
74108;SDS011;62466;47.566;7.786;2023-04-30T11:52:06;1.45;;;1.35;;
74108;SDS011;62466;47.566;7.786;2023-04-30T11:54:36;1.75;;;1.42;;
74108;SDS011;62466;47.566;7.786;2023-04-30T11:57:03;2.17;;;1.42;;
74108;SDS011;62466;47.566;7.786;2023-04-30T11:59:29;1.95;;;1.33;;
74108;SDS011;62466;47.566;7.786;2023-04-30T12:01:56;2.28;;;1.55;;
74108;SDS011;62466;47.566;7.786;2023-04-30T12:04:22;1.75;;;1.30;;
74108;SDS011;62466;47.566;7.786;2023-04-30T12:06:48;2.05;;;1.60;;
74108;SDS011;62466;47.566;7.786;2023-04-30T12:09:13;1.50;;;1.40;;
74108;SDS011;62466;47.566;7.786;2023-04-30T12:11:39;3.08;;;1.75;;
74108;SDS011;62466;47.566;7.786;2023-04-30T12:14:06;1.65;;;1.55;;
74108;SDS011;62466;47.566;7.786;2023-04-30T12:16:50;2.42;;;1.15;;
74108;SDS011;62466;47.566;7.786;2023-04-30T12:19:17;1.90;;;1.40;;
74108;SDS011;62466;47.566;7.786;2023-04-30T12:21:44;1.63;;;1.52;;
74108;SDS011;62466;47.566;7.786;2023-04-30T12:24:15;2.35;;;1.50;;
74108;SDS011;62466;47.566;7.786;2023-04-30T12:26:44;2.30;;;2.13;;
74108;SDS011;62466;47.566;7.786;2023-04-30T12:29:15;3.97;;;1.52;;
74108;SDS011;62466;47.566;7.786;2023-04-30T12:31:44;1.60;;;1.50;;
74108;SDS011;62466;47.566;7.786;2023-04-30T12:34:19;2.22;;;1.73;;
74108;SDS011;62466;47.566;7.786;2023-04-30T12:36:44;3.35;;;1.70;;
74108;SDS011;62466;47.566;7.786;2023-04-30T12:39:14;1.67;;;1.58;;
74108;SDS011;62466;47.566;7.786;2023-04-30T12:44:19;2.03;;;1.58;;
74108;SDS011;62466;47.566;7.786;2023-04-30T12:46:51;2.85;;;1.52;;
74108;SDS011;62466;47.566;7.786;2023-04-30T12:49:27;2.38;;;1.17;;
74108;SDS011;62466;47.566;7.786;2023-04-30T12:52:04;1.60;;;1.50;;
74108;SDS011;62466;47.566;7.786;2023-04-30T12:54:36;1.63;;;1.50;;
74108;SDS011;62466;47.566;7.786;2023-04-30T12:57:06;4.07;;;1.83;;
74108;SDS011;62466;47.566;7.786;2023-04-30T12:59:35;1.90;;;1.80;;
74108;SDS011;62466;47.566;7.786;2023-04-30T13:04:38;1.70;;;1.50;;
74108;SDS011;62466;47.566;7.786;2023-04-30T13:07:04;2.55;;;1.52;;
74108;SDS011;62466;47.566;7.786;2023-04-30T13:09:33;2.08;;;1.70;;
74108;SDS011;62466;47.566;7.786;2023-04-30T13:12:00;1.67;;;1.57;;
74108;SDS011;62466;47.566;7.786;2023-04-30T13:14:26;2.90;;;1.55;;
74108;SDS011;62466;47.566;7.786;2023-04-30T13:16:51;4.50;;;1.80;;
74108;SDS011;62466;47.566;7.786;2023-04-30T13:22:27;1.38;;;1.27;;
74108;SDS011;62466;47.566;7.786;2023-04-30T13:24:53;1.65;;;1.55;;
74108;SDS011;62466;47.566;7.786;2023-04-30T13:27:19;3.05;;;1.80;;
74108;SDS011;62466;47.566;7.786;2023-04-30T13:29:45;2.55;;;1.60;;
74108;SDS011;62466;47.566;7.786;2023-04-30T13:32:10;2.58;;;1.40;;
74108;SDS011;62466;47.566;7.786;2023-04-30T13:34:42;3.00;;;1.60;;
74108;SDS011;62466;47.566;7.786;2023-04-30T13:37:09;1.70;;;1.52;;
74108;SDS011;62466;47.566;7.786;2023-04-30T13:39:34;3.50;;;1.60;;
74108;SDS011;62466;47.566;7.786;2023-04-30T13:42:00;1.50;;;1.40;;
74108;SDS011;62466;47.566;7.786;2023-04-30T13:44:26;2.17;;;1.48;;
74108;SDS011;62466;47.566;7.786;2023-04-30T13:46:52;1.90;;;1.67;;
74108;SDS011;62466;47.566;7.786;2023-04-30T13:49:17;1.50;;;1.40;;
74108;SDS011;62466;47.566;7.786;2023-04-30T13:51:43;1.63;;;1.52;;
74108;SDS011;62466;47.566;7.786;2023-04-30T13:54:08;2.17;;;1.40;;
74108;SDS011;62466;47.566;7.786;2023-04-30T13:56:34;3.05;;;1.58;;
74108;SDS011;62466;47.566;7.786;2023-04-30T13:59:00;1.60;;;1.50;;
74108;SDS011;62466;47.566;7.786;2023-04-30T14:01:26;2.45;;;1.70;;
74108;SDS011;62466;47.566;7.786;2023-04-30T14:03:52;1.80;;;1.67;;
74108;SDS011;62466;47.566;7.786;2023-04-30T14:06:17;2.67;;;2.20;;
74108;SDS011;62466;47.566;7.786;2023-04-30T14:08:51;2.20;;;1.70;;
74108;SDS011;62466;47.566;7.786;2023-04-30T14:12:01;1.83;;;1.73;;
74108;SDS011;62466;47.566;7.786;2023-04-30T14:14:27;1.73;;;1.50;;
74108;SDS011;62466;47.566;7.786;2023-04-30T14:16:55;1.30;;;1.20;;
74108;SDS011;62466;47.566;7.786;2023-04-30T14:19:20;2.33;;;1.98;;
74108;SDS011;62466;47.566;7.786;2023-04-30T14:21:46;1.60;;;1.50;;
74108;SDS011;62466;47.566;7.786;2023-04-30T14:24:12;1.55;;;1.27;;
74108;SDS011;62466;47.566;7.786;2023-04-30T14:26:38;2.17;;;1.50;;
74108;SDS011;62466;47.566;7.786;2023-04-30T14:29:05;1.65;;;1.55;;
74108;SDS011;62466;47.566;7.786;2023-04-30T14:31:31;1.70;;;1.60;;
74108;SDS011;62466;47.566;7.786;2023-04-30T14:33:56;2.45;;;1.70;;
74108;SDS011;62466;47.566;7.786;2023-04-30T14:36:22;2.08;;;1.80;;
74108;SDS011;62466;47.566;7.786;2023-04-30T14:38:47;1.50;;;1.40;;
74108;SDS011;62466;47.566;7.786;2023-04-30T14:41:13;2.88;;;2.08;;
74108;SDS011;62466;47.566;7.786;2023-04-30T14:43:39;4.43;;;2.38;;
74108;SDS011;62466;47.566;7.786;2023-04-30T14:46:07;3.67;;;1.52;;
74108;SDS011;62466;47.566;7.786;2023-04-30T14:48:33;1.70;;;1.60;;
74108;SDS011;62466;47.566;7.786;2023-04-30T14:51:03;2.35;;;1.95;;
74108;SDS011;62466;47.566;7.786;2023-04-30T14:53:29;1.70;;;1.60;;
74108;SDS011;62466;47.566;7.786;2023-04-30T14:55:55;1.60;;;1.50;;
74108;SDS011;62466;47.566;7.786;2023-04-30T14:58:21;1.95;;;1.83;;
74108;SDS011;62466;47.566;7.786;2023-04-30T15:00:46;2.00;;;1.80;;
74108;SDS011;62466;47.566;7.786;2023-04-30T15:03:15;2.65;;;1.75;;
74108;SDS011;62466;47.566;7.786;2023-04-30T15:05:40;1.80;;;1.70;;
74108;SDS011;62466;47.566;7.786;2023-04-30T15:08:06;1.98;;;1.55;;
74108;SDS011;62466;47.566;7.786;2023-04-30T15:10:32;3.55;;;1.80;;
74108;SDS011;62466;47.566;7.786;2023-04-30T15:12:57;1.70;;;1.58;;
74108;SDS011;62466;47.566;7.786;2023-04-30T15:15:26;2.22;;;2.00;;
74108;SDS011;62466;47.566;7.786;2023-04-30T15:17:53;1.90;;;1.80;;
74108;SDS011;62466;47.566;7.786;2023-04-30T15:20:20;2.25;;;1.90;;
74108;SDS011;62466;47.566;7.786;2023-04-30T15:22:46;2.05;;;1.90;;
74108;SDS011;62466;47.566;7.786;2023-04-30T15:25:11;1.77;;;1.67;;